createdAt,value
2023-04-12T00:02:03.525Z,99408.27
2023-04-12T00:04:34.786Z,99407.67
2023-04-12T00:07:03.878Z,99407.13
2023-04-12T00:09:36.633Z,99402.74
2023-04-12T00:12:06.598Z,99403.27
2023-04-12T00:14:35.298Z,99395.86
2023-04-12T00:17:03.787Z,99391.22
2023-04-12T00:19:33.185Z,99389.61
2023-04-12T00:22:02.998Z,99385.13
2023-04-12T00:24:32.306Z,99387.58
2023-04-12T00:27:02.428Z,99390.11
2023-04-12T00:29:36.178Z,99383.92
2023-04-12T00:32:06.240Z,99380.48
2023-04-12T00:34:34.669Z,99384.88
2023-04-12T00:37:03.524Z,99382.58
2023-04-12T00:39:33.240Z,99381.83
2023-04-12T00:42:09.077Z,99384.25
2023-04-12T00:44:37.539Z,99383.02
2023-04-12T00:47:07.106Z,99381.44
2023-04-12T00:49:37.898Z,99382.17
2023-04-12T00:52:11.161Z,99374.22
2023-04-12T00:54:42.711Z,99381.70
2023-04-12T00:57:13.768Z,99376.33
2023-04-12T00:59:42.889Z,99375.99
2023-04-12T01:02:13.574Z,99376.94
2023-04-12T01:04:44.435Z,99378.70
2023-04-12T01:07:30.259Z,99376.73
2023-04-12T01:10:05.202Z,99372.39
2023-04-12T01:12:48.087Z,99368.36
2023-04-12T01:15:16.773Z,99369.15
2023-04-12T01:18:06.454Z,99369.88
2023-04-12T01:20:39.465Z,99365.27
2023-04-12T01:23:26.452Z,99357.66
2023-04-12T01:26:22.132Z,99353.75
2023-04-12T01:28:53.832Z,99347.69
2023-04-12T01:31:26.426Z,99342.42
2023-04-12T01:34:03.300Z,99334.61
2023-04-12T01:36:32.485Z,99333.45
2023-04-12T01:39:04.922Z,99332.47
2023-04-12T01:41:33.743Z,99333.06
2023-04-12T01:44:02.018Z,99328.52
2023-04-12T01:46:32.757Z,99329.29
2023-04-12T01:49:01.509Z,99324.46
2023-04-12T01:51:42.333Z,99319.81
2023-04-12T01:54:13.822Z,99316.85
2023-04-12T01:56:46.649Z,99312.40
2023-04-12T01:59:16.986Z,99309.63
2023-04-12T02:01:47.050Z,99304.65
2023-04-12T02:04:16.728Z,99301.05
2023-04-12T02:06:46.439Z,99300.58
2023-04-12T02:09:17.073Z,99298.09
2023-04-12T02:11:48.596Z,99294.81
2023-04-12T02:14:16.900Z,99293.61
2023-04-12T02:16:51.074Z,99297.02
2023-04-12T02:19:19.878Z,99290.55
2023-04-12T02:21:48.358Z,99294.04
2023-04-12T02:24:17.515Z,99289.12
2023-04-12T02:26:50.092Z,99292.59
2023-04-12T02:29:19.032Z,99295.04
2023-04-12T02:31:51.559Z,99293.02
2023-04-12T02:34:21.622Z,99296.44
2023-04-12T02:36:56.754Z,99294.15
2023-04-12T02:39:29.443Z,99295.71
2023-04-12T02:41:58.631Z,99295.61
2023-04-12T02:44:30.612Z,99300.19
2023-04-12T02:47:14.877Z,99304.26
2023-04-12T02:49:46.641Z,99311.88
2023-04-12T02:52:16.871Z,99311.59
2023-04-12T02:54:59.027Z,99308.98
2023-04-12T02:57:27.895Z,99309.05
2023-04-12T03:00:15.377Z,99309.08
2023-04-12T03:03:03.513Z,99305.15
2023-04-12T03:05:33.298Z,99307.30
2023-04-12T03:08:02.812Z,99307.35
2023-04-12T03:10:45.450Z,99311.63
2023-04-12T03:13:14.332Z,99312.11
2023-04-12T03:15:48.180Z,99305.95
2023-04-12T03:18:17.638Z,99307.45
2023-04-12T03:20:48.863Z,99314.47
2023-04-12T03:23:18.235Z,99309.51
2023-04-12T03:25:50.538Z,99313.66
2023-04-12T03:28:39.404Z,99323.45
2023-04-12T03:31:08.241Z,99324.21
2023-04-12T03:33:41.374Z,99331.66
2023-04-12T03:36:14.819Z,99336.39
2023-04-12T03:38:43.662Z,99336.52
2023-04-12T03:41:12.548Z,99342.55
2023-04-12T03:43:42.913Z,99345.67
2023-04-12T03:46:18.238Z,99349.22
2023-04-12T03:48:52.396Z,99354.29
2023-04-12T03:51:22.556Z,99361.27
2023-04-12T03:53:51.233Z,99365.27
2023-04-12T03:56:20.997Z,99365.25
2023-04-12T03:58:51.422Z,99369.70
2023-04-12T04:01:21.827Z,99376.56
2023-04-12T04:03:50.811Z,99379.01
2023-04-12T04:06:30.060Z,99381.62
2023-04-12T04:08:58.612Z,99388.22
2023-04-12T04:11:27.965Z,99392.52
2023-04-12T04:14:02.337Z,99392.92
2023-04-12T04:16:31.567Z,99393.31
2023-04-12T04:19:00.895Z,99397.40
2023-04-12T04:21:30.798Z,99407.33
2023-04-12T04:24:01.483Z,99402.73
2023-04-12T04:26:33.739Z,99403.67
2023-04-12T04:29:26.348Z,99406.45
2023-04-12T04:31:55.245Z,99407.92
2023-04-12T04:34:25.562Z,99409.39
2023-04-12T04:36:57.679Z,99408.09
2023-04-12T04:39:28.547Z,99408.72
2023-04-12T04:41:58.355Z,99415.90
2023-04-12T04:44:37.535Z,99418.42
2023-04-12T04:47:08.918Z,99417.73
2023-04-12T04:49:39.656Z,99420.09
2023-04-12T04:52:22.285Z,99420.43
2023-04-12T04:54:51.157Z,99418.50
2023-04-12T04:57:22.607Z,99429.52
2023-04-12T04:59:51.879Z,99435.67
2023-04-12T05:02:21.620Z,99433.52
2023-04-12T05:04:51.533Z,99427.55
2023-04-12T05:07:22.533Z,99414.05
2023-04-12T05:09:51.642Z,99419.98
2023-04-12T05:12:21.741Z,99420.54
2023-04-12T05:15:10.660Z,99422.10
2023-04-12T05:17:41.243Z,99417.09
2023-04-12T05:20:13.538Z,99419.98
2023-04-12T05:22:42.439Z,99416.86
2023-04-12T05:25:11.125Z,99422.73
2023-04-12T05:27:49.228Z,99415.52
2023-04-12T05:30:19.342Z,99418.60
2023-04-12T05:32:49.222Z,99414.27
2023-04-12T05:35:18.881Z,99418.39
2023-04-12T05:37:48.371Z,99422.13
2023-04-12T05:40:18.138Z,99421.45
2023-04-12T05:42:47.277Z,99418.38
2023-04-12T05:45:16.222Z,99414.40
2023-04-12T05:47:47.891Z,99415.73
2023-04-12T05:50:17.402Z,99421.30
2023-04-12T05:52:55.364Z,99418.94
2023-04-12T05:55:29.156Z,99420.49
2023-04-12T05:57:58.889Z,99423.61
2023-04-12T06:00:28.254Z,99427.75
2023-04-12T06:02:57.518Z,99430.40
2023-04-12T06:05:28.950Z,99438.33
2023-04-12T06:08:01.074Z,99433.77
2023-04-12T06:10:30.753Z,99435.36
2023-04-12T06:13:00.498Z,99443.37
2023-04-12T06:15:32.263Z,99448.26
2023-04-12T06:18:01.070Z,99440.81
2023-04-12T06:20:34.081Z,99435.81
2023-04-12T06:23:03.287Z,99429.73
2023-04-12T06:25:32.389Z,99426.20
2023-04-12T06:28:04.796Z,99434.81
2023-04-12T06:30:38.806Z,99435.10
2023-04-12T06:33:07.441Z,99434.79
2023-04-12T06:35:36.192Z,99433.29
2023-04-12T06:38:05.029Z,99431.89
2023-04-12T06:40:38.694Z,99437.54
2023-04-12T06:43:09.429Z,99432.77
2023-04-12T06:45:37.993Z,99430.73
2023-04-12T06:48:07.202Z,99430.93
2023-04-12T06:50:35.966Z,99443.67
2023-04-12T06:53:05.983Z,99424.84
2023-04-12T06:55:35.083Z,99418.59
2023-04-12T06:58:03.396Z,99412.02
2023-04-12T07:00:33.676Z,99400.56
2023-04-12T07:03:02.753Z,99398.47
2023-04-12T07:05:31.512Z,99399.33
2023-04-12T07:08:00.406Z,99400.04
2023-04-12T07:10:29.960Z,99399.41
2023-04-12T07:13:03.300Z,99395.48
2023-04-12T07:15:32.580Z,99393.70
2023-04-12T07:18:02.473Z,99388.69
2023-04-12T07:20:31.235Z,99387.80
2023-04-12T07:23:00.788Z,99389.20
2023-04-12T07:25:29.552Z,99381.07
2023-04-12T07:27:58.688Z,99376.73
2023-04-12T07:30:27.443Z,99376.04
2023-04-12T07:33:05.277Z,99361.65
2023-04-12T07:35:42.825Z,99360.91
2023-04-12T07:38:11.444Z,99364.36
2023-04-12T07:40:39.935Z,99365.47
2023-04-12T07:43:10.667Z,99363.14
2023-04-12T07:45:39.453Z,99357.13
2023-04-12T07:48:08.526Z,99362.38
2023-04-12T07:50:39.146Z,99352.45
2023-04-12T07:53:22.996Z,99352.34
2023-04-12T07:55:51.983Z,99352.68
2023-04-12T07:58:22.007Z,99354.61
2023-04-12T08:00:54.694Z,99353.59
2023-04-12T08:03:24.808Z,99350.83
2023-04-12T08:05:54.054Z,99347.34
2023-04-12T08:08:26.176Z,99350.52
2023-04-12T08:10:55.445Z,99356.60
2023-04-12T08:13:24.156Z,99354.64
2023-04-12T08:15:55.355Z,99351.70
2023-04-12T08:18:24.697Z,99347.71
2023-04-12T08:20:53.024Z,99340.82
2023-04-12T08:23:23.662Z,99348.43
2023-04-12T08:25:53.473Z,99349.80
2023-04-12T08:28:22.974Z,99357.45
2023-04-12T08:30:52.045Z,99353.74
2023-04-12T08:33:23.577Z,99352.98
2023-04-12T08:35:53.091Z,99363.25
2023-04-12T08:38:30.709Z,99366.91
2023-04-12T08:41:11.143Z,99366.49
2023-04-12T08:43:43.422Z,99360.39
2023-04-12T08:46:16.102Z,99352.18
2023-04-12T08:48:46.670Z,99350.30
2023-04-12T08:51:18.840Z,99354.54
2023-04-12T08:53:48.513Z,99356.41
2023-04-12T08:56:22.202Z,99347.42
2023-04-12T08:58:51.235Z,99338.98
2023-04-12T09:01:20.492Z,99333.52
2023-04-12T09:03:52.210Z,99320.18
2023-04-12T09:06:21.782Z,99315.27
2023-04-12T09:08:57.206Z,99320.52
2023-04-12T09:11:31.267Z,99318.10
2023-04-12T09:14:00.186Z,99311.77
2023-04-12T09:16:35.796Z,99314.84
2023-04-12T09:19:05.264Z,99312.38
2023-04-12T09:21:35.088Z,99313.31
2023-04-12T09:24:03.960Z,99306.40
2023-04-12T09:26:37.157Z,99300.66
2023-04-12T09:29:05.834Z,99292.04
2023-04-12T09:31:34.353Z,99283.10
2023-04-12T09:34:09.002Z,99289.40
2023-04-12T09:36:39.111Z,99289.60
2023-04-12T09:39:10.504Z,99282.55
2023-04-12T09:41:39.797Z,99276.33
2023-04-12T09:44:08.709Z,99275.34
2023-04-12T09:46:44.926Z,99272.46
2023-04-12T09:49:14.799Z,99266.77
2023-04-12T09:51:43.271Z,99273.84
2023-04-12T09:54:12.311Z,99272.23
2023-04-12T09:56:42.478Z,99268.42
2023-04-12T09:59:10.808Z,99270.30
2023-04-12T10:01:40.481Z,99274.29
2023-04-12T10:04:09.976Z,99272.92
2023-04-12T10:06:42.225Z,99279.58
2023-04-12T10:09:10.915Z,99275.65
2023-04-12T10:11:42.176Z,99274.15
2023-04-12T10:14:11.942Z,99269.06
2023-04-12T10:16:45.338Z,99268.81
2023-04-12T10:19:14.398Z,99265.05
2023-04-12T10:21:43.250Z,99269.71
2023-04-12T10:24:16.894Z,99264.52
2023-04-12T10:26:45.567Z,99270.21
2023-04-12T10:29:27.200Z,99268.45
2023-04-12T10:31:56.387Z,99261.44
2023-04-12T10:34:29.808Z,99261.87
2023-04-12T10:37:01.792Z,99249.42
2023-04-12T10:39:45.482Z,99240.31
2023-04-12T10:42:17.121Z,99233.89
2023-04-12T10:45:00.382Z,99232.06
2023-04-12T10:47:48.225Z,99226.58
2023-04-12T10:50:27.801Z,99222.68
2023-04-12T10:53:18.008Z,99210.87
2023-04-12T10:55:47.329Z,99211.67
2023-04-12T10:58:50.032Z,99203.80
2023-04-12T11:01:23.172Z,99195.70
2023-04-12T11:04:18.805Z,99178.90
2023-04-12T11:07:23.310Z,99165.95
2023-04-12T11:10:03.442Z,99161.64
2023-04-12T11:12:37.750Z,99153.52
2023-04-12T11:15:07.113Z,99148.65
2023-04-12T11:18:01.170Z,99142.84
2023-04-12T11:20:30.084Z,99137.95
2023-04-12T11:23:00.833Z,99135.95
2023-04-12T11:25:29.692Z,99130.55
2023-04-12T11:27:58.777Z,99128.48
2023-04-12T11:30:29.815Z,99129.62
2023-04-12T11:32:58.966Z,99132.02
2023-04-12T11:35:30.611Z,99133.38
2023-04-12T11:37:59.600Z,99121.77
2023-04-12T11:40:28.653Z,99118.88
2023-04-12T11:42:58.135Z,99113.23
2023-04-12T11:45:27.017Z,99108.42
2023-04-12T11:47:58.836Z,99102.05
2023-04-12T11:50:31.631Z,99097.92
2023-04-12T11:53:13.996Z,99098.73
2023-04-12T11:55:47.694Z,99095.75
2023-04-12T11:58:17.374Z,99097.73
2023-04-12T12:00:46.694Z,99092.41
2023-04-12T12:03:16.811Z,99087.59
2023-04-12T12:05:47.254Z,99081.80
2023-04-12T12:08:16.061Z,99069.50
2023-04-12T12:11:06.323Z,99072.88
2023-04-12T12:13:52.994Z,99071.52
2023-04-12T12:16:29.040Z,99067.98
2023-04-12T12:18:59.124Z,99059.05
2023-04-12T12:21:28.701Z,99062.77
2023-04-12T12:23:57.790Z,99065.36
2023-04-12T12:26:30.970Z,99057.66
2023-04-12T12:29:02.577Z,99052.88
2023-04-12T12:31:33.907Z,99050.47
2023-04-12T12:34:04.324Z,99052.59
2023-04-12T12:36:36.756Z,99055.62
2023-04-12T12:39:08.268Z,99065.23
2023-04-12T12:41:37.466Z,99065.29
2023-04-12T12:44:07.018Z,99062.40
2023-04-12T12:49:07.732Z,99073.09
2023-04-12T12:51:36.858Z,99074.29
2023-04-12T12:54:05.429Z,99071.67
2023-04-12T12:56:37.707Z,99069.83
2023-04-12T12:59:07.287Z,99078.58
2023-04-12T13:01:36.241Z,99077.73
2023-04-12T13:04:05.163Z,99080.36
2023-04-12T13:06:34.059Z,99076.94
2023-04-12T13:09:02.749Z,99075.83
2023-04-12T13:11:33.264Z,99063.70
2023-04-12T13:14:02.736Z,99064.66
2023-04-12T13:16:31.894Z,99061.83
2023-04-12T13:19:00.867Z,99065.27
2023-04-12T13:21:29.940Z,99064.27
2023-04-12T13:23:59.214Z,99059.92
2023-04-12T13:26:27.942Z,99059.92
2023-04-12T13:28:56.609Z,99058.42
2023-04-12T13:31:28.969Z,99060.11
2023-04-12T13:33:59.122Z,99064.76
2023-04-12T13:36:27.713Z,99076.11
2023-04-12T13:38:56.358Z,99070.57
2023-04-12T13:41:25.854Z,99068.14
2023-04-12T13:43:54.485Z,99066.06
2023-04-12T13:46:25.023Z,99067.15
2023-04-12T13:48:54.413Z,99067.91
2023-04-12T13:51:22.931Z,99072.55
2023-04-12T13:53:51.512Z,99073.94
2023-04-12T13:56:21.094Z,99075.27
2023-04-12T13:58:49.367Z,99081.83
2023-04-12T14:01:18.855Z,99085.01
2023-04-12T14:03:48.483Z,99085.48
2023-04-12T14:06:17.063Z,99089.05
2023-04-12T14:08:48.238Z,99087.17
2023-04-12T14:11:17.320Z,99088.45
2023-04-12T14:13:45.886Z,99085.83
2023-04-12T14:16:14.360Z,99087.13
2023-04-12T14:18:43.156Z,99087.13
2023-04-12T14:21:11.750Z,99091.05
2023-04-12T14:23:41.680Z,99089.83
2023-04-12T14:26:15.980Z,99082.88
2023-04-12T14:28:44.757Z,99083.58
2023-04-12T14:31:20.348Z,99075.94
2023-04-12T14:33:51.041Z,99075.30
2023-04-12T14:36:19.424Z,99079.91
2023-04-12T14:38:50.277Z,99075.20
2023-04-12T14:41:18.836Z,99073.20
2023-04-12T14:43:47.425Z,99063.57
2023-04-12T14:46:19.341Z,99049.61
2023-04-12T14:48:48.036Z,99036.37
2023-04-12T14:51:17.439Z,99033.63
2023-04-12T14:53:49.260Z,99034.27
2023-04-12T14:56:27.867Z,99039.39
2023-04-12T14:58:58.760Z,99040.13
2023-04-12T15:01:29.030Z,99038.00
2023-04-12T15:03:58.140Z,99035.02
2023-04-12T15:06:35.388Z,99031.89
2023-04-12T15:09:06.621Z,99030.91
2023-04-12T15:11:36.145Z,99031.16
2023-04-12T15:14:10.285Z,99033.61
2023-04-12T15:16:42.832Z,99029.98
2023-04-12T15:19:20.402Z,99026.17
2023-04-12T15:21:54.355Z,99025.70
2023-04-12T15:24:28.467Z,99023.98
2023-04-12T15:26:58.088Z,99022.23
2023-04-12T15:29:29.511Z,99021.86
2023-04-12T15:31:58.272Z,99016.40
2023-04-12T15:34:28.827Z,99016.31
2023-04-12T15:36:57.655Z,99013.71
2023-04-12T15:39:27.850Z,99013.64
2023-04-12T15:41:56.946Z,99011.64
2023-04-12T15:44:30.458Z,99010.35
2023-04-12T15:47:10.253Z,99009.76
2023-04-12T15:49:40.686Z,99012.58
2023-04-12T15:52:09.269Z,99012.91
2023-04-12T15:54:44.140Z,99018.08
2023-04-12T15:57:12.768Z,99024.73
2023-04-12T15:59:48.164Z,99026.89
2023-04-12T16:02:17.574Z,99025.39
2023-04-12T16:04:46.741Z,99026.34
2023-04-12T16:07:15.334Z,99031.77
2023-04-12T16:09:44.230Z,99033.55
2023-04-12T16:12:14.548Z,99032.77
2023-04-12T16:14:43.652Z,99030.40
2023-04-12T16:17:12.690Z,99025.95
2023-04-12T16:19:42.148Z,99028.63
2023-04-12T16:22:11.138Z,99029.37
2023-04-12T16:24:45.656Z,99027.11
2023-04-12T16:27:15.165Z,99028.27
2023-04-12T16:29:43.954Z,99035.50
2023-04-12T16:32:15.055Z,99038.70
2023-04-12T16:34:44.810Z,99039.89
2023-04-12T16:37:13.599Z,99042.77
2023-04-12T16:39:46.486Z,99041.73
2023-04-12T16:42:15.880Z,99040.95
2023-04-12T16:44:44.367Z,99039.39
2023-04-12T16:47:13.015Z,99037.09
2023-04-12T16:49:42.699Z,99037.01
2023-04-12T16:52:11.973Z,99037.59
2023-04-12T16:54:40.954Z,99036.08
2023-04-12T16:57:09.575Z,99032.56
2023-04-12T16:59:42.469Z,99029.49
2023-04-12T17:02:12.879Z,99027.26
2023-04-12T17:04:42.353Z,99027.51
2023-04-12T17:07:11.140Z,99031.33
2023-04-12T17:09:41.311Z,99030.82
2023-04-12T17:12:10.096Z,99032.41
2023-04-12T17:14:39.041Z,99030.32
2023-04-12T17:17:15.213Z,99027.91
2023-04-12T17:19:44.838Z,99026.77
2023-04-12T17:22:13.387Z,99028.14
2023-04-12T17:24:44.533Z,99026.14
2023-04-12T17:27:13.318Z,99022.09
2023-04-12T17:29:41.713Z,99023.73
2023-04-12T17:32:18.472Z,99018.75
2023-04-12T17:34:47.478Z,99013.47
2023-04-12T17:37:16.306Z,99018.10
2023-04-12T17:39:48.640Z,99017.30
2023-04-12T17:42:20.914Z,99013.67
2023-04-12T17:44:49.648Z,99019.11
2023-04-12T17:47:23.755Z,99025.40
2023-04-12T17:49:52.412Z,99029.38
2023-04-12T17:52:21.090Z,99033.33
2023-04-12T17:54:51.616Z,99034.59
2023-04-12T17:57:20.089Z,99037.57
2023-04-12T17:59:48.974Z,99038.09
2023-04-12T18:02:17.531Z,99039.34
2023-04-12T18:04:47.196Z,99038.96
2023-04-12T18:07:16.720Z,99043.73
2023-04-12T18:09:45.578Z,99045.66
2023-04-12T18:12:14.175Z,99046.66
2023-04-12T18:14:44.005Z,99048.19
2023-04-12T18:17:12.971Z,99043.11
2023-04-12T18:19:42.348Z,99044.37
2023-04-12T18:22:10.934Z,99041.99
2023-04-12T18:24:39.894Z,99043.65
2023-04-12T18:27:08.661Z,99046.84
2023-04-12T18:29:37.916Z,99046.48
2023-04-12T18:32:06.502Z,99044.14
2023-04-12T18:34:35.739Z,99049.56
2023-04-12T18:37:06.225Z,99050.22
2023-04-12T18:39:36.053Z,99050.27
2023-04-12T18:42:04.727Z,99051.52
2023-04-12T18:44:35.193Z,99052.07
2023-04-12T18:47:04.488Z,99052.23
2023-04-12T18:49:33.154Z,99054.34
2023-04-12T18:52:02.064Z,99056.09
2023-04-12T18:54:35.775Z,99054.39
2023-04-12T18:57:04.730Z,99053.30
2023-04-12T18:59:33.371Z,99051.35
2023-04-12T19:02:04.593Z,99054.58
2023-04-12T19:04:34.224Z,99056.73
2023-04-12T19:07:03.058Z,99054.45
2023-04-12T19:09:32.280Z,99049.55
2023-04-12T19:12:03.103Z,99052.30
2023-04-12T19:14:32.210Z,99055.23
2023-04-12T19:17:01.287Z,99056.61
2023-04-12T19:19:32.452Z,99054.55
2023-04-12T19:22:01.230Z,99053.81
2023-04-12T19:24:29.816Z,99052.38
2023-04-12T19:26:58.480Z,99054.19
2023-04-12T19:29:28.392Z,99056.95
2023-04-12T19:31:58.644Z,99052.13
2023-04-12T19:34:27.919Z,99048.95
2023-04-12T19:36:56.506Z,99045.98
2023-04-12T19:39:27.137Z,99045.16
2023-04-12T19:41:56.835Z,99045.85
2023-04-12T19:44:25.933Z,99040.18
2023-04-12T19:46:54.308Z,99037.02
2023-04-12T19:49:23.951Z,99041.21
2023-04-12T19:51:52.562Z,99038.02
2023-04-12T19:54:23.984Z,99032.73
2023-04-12T19:56:53.665Z,99033.44
2023-04-12T19:59:23.351Z,99035.83
2023-04-12T20:01:56.263Z,99041.64
2023-04-12T20:04:24.750Z,99041.04
2023-04-12T20:06:54.121Z,99038.60
2023-04-12T20:09:23.104Z,99037.89
2023-04-12T20:11:51.817Z,99042.13
2023-04-12T20:14:22.169Z,99044.30
2023-04-12T20:16:56.109Z,99037.80
2023-04-12T20:19:27.634Z,99035.52
2023-04-12T20:22:02.126Z,99037.40
2023-04-12T20:24:34.401Z,99040.00
2023-04-12T20:27:04.017Z,99034.27
2023-04-12T20:29:34.769Z,99026.83
2023-04-12T20:32:04.446Z,99028.00
2023-04-12T20:34:34.489Z,99031.23
2023-04-12T20:37:03.560Z,99031.15
2023-04-12T20:39:32.258Z,99035.60
2023-04-12T20:42:01.516Z,99031.50
2023-04-12T20:44:30.138Z,99027.29
2023-04-12T20:47:02.808Z,99017.33
2023-04-12T20:49:32.222Z,99010.88
2023-04-12T20:52:01.001Z,99013.27
2023-04-12T20:54:31.906Z,99013.59
2023-04-12T20:57:01.031Z,99014.48
2023-04-12T20:59:32.139Z,99015.89
2023-04-12T21:02:01.062Z,99018.73
2023-04-12T21:04:30.746Z,99014.94
2023-04-12T21:07:03.581Z,99013.11
2023-04-12T21:09:32.711Z,99011.88
2023-04-12T21:12:05.184Z,99011.30
2023-04-12T21:14:50.251Z,99020.11
2023-04-12T21:17:22.539Z,99017.75
2023-04-12T21:19:51.370Z,99018.98
2023-04-12T21:22:25.075Z,99016.23
2023-04-12T21:24:53.750Z,99012.50
2023-04-12T21:27:22.235Z,99012.52
2023-04-12T21:29:52.152Z,99011.11
2023-04-12T21:32:21.213Z,99013.98
2023-04-12T21:34:50.407Z,99016.42
2023-04-12T21:37:22.343Z,99012.77
2023-04-12T21:39:50.859Z,99010.31
2023-04-12T21:42:27.567Z,99011.97
2023-04-12T21:44:56.348Z,99011.27
2023-04-12T21:47:24.958Z,99005.39
2023-04-12T21:49:53.885Z,99002.05
2023-04-12T21:52:22.206Z,99000.41
2023-04-12T21:54:54.109Z,98997.10
2023-04-12T21:57:22.572Z,98995.88
2023-04-12T21:59:51.178Z,98992.66
2023-04-12T22:02:19.704Z,98992.91
2023-04-12T22:04:49.418Z,98993.10
2023-04-12T22:07:18.871Z,98998.94
2023-04-12T22:09:47.595Z,98998.84
2023-04-12T22:12:20.620Z,98998.51
2023-04-12T22:14:58.848Z,98996.77
2023-04-12T22:17:27.437Z,98994.09
2023-04-12T22:19:56.874Z,98988.48
2023-04-12T22:22:26.225Z,98992.23
2023-04-12T22:24:55.091Z,98990.42
2023-04-12T22:27:26.909Z,98990.19
2023-04-12T22:29:58.602Z,98987.08
2023-04-12T22:32:27.833Z,98982.08
2023-04-12T22:35:08.127Z,98980.42
2023-04-12T22:37:41.552Z,98978.85
2023-04-12T22:40:12.484Z,98977.00
2023-04-12T22:42:47.572Z,98978.65
2023-04-12T22:45:16.678Z,98978.69
2023-04-12T22:47:45.615Z,98984.20
2023-04-12T22:50:17.798Z,98985.34
2023-04-12T22:52:50.195Z,98982.74
2023-04-12T22:55:18.944Z,98981.73
2023-04-12T22:57:53.277Z,98976.91
2023-04-12T23:00:25.330Z,98971.92
2023-04-12T23:02:54.641Z,98967.49
2023-04-12T23:05:24.148Z,98968.08
2023-04-12T23:07:53.399Z,98969.17
2023-04-12T23:10:23.159Z,98966.95
2023-04-12T23:12:53.664Z,98973.10
2023-04-12T23:15:24.328Z,98975.62
2023-04-12T23:17:54.872Z,98982.37
2023-04-12T23:20:23.337Z,98991.39
2023-04-12T23:22:57.718Z,98993.98
2023-04-12T23:25:41.958Z,98993.73
2023-04-12T23:28:15.189Z,98991.95
2023-04-12T23:30:50.117Z,98987.00
2023-04-12T23:33:20.700Z,98981.70
2023-04-12T23:35:52.598Z,98984.98
2023-04-12T23:38:31.932Z,98993.42
2023-04-12T23:41:02.576Z,98994.23
2023-04-12T23:43:32.600Z,98996.76
2023-04-12T23:46:03.291Z,98995.37
2023-04-12T23:48:32.460Z,98995.62
2023-04-12T23:51:01.329Z,98994.42
2023-04-12T23:53:29.893Z,98993.63
2023-04-12T23:55:59.090Z,98995.20
2023-04-12T23:58:27.506Z,98990.48
